This is the latest recevied weather packets stored in our database for station/object JE0GNV-13. If no packets are shown the sender has not sent any weather packets the latest 1 day(s).
| Time | Temp. | Humidity | Pressure | Rain* | Wind** | Luminosity | Snow |
|---|---|---|---|---|---|---|---|
| 1777946402 | 16.11° C | 28% | 1016.8 hPa | 0 mm | 0 m/s | - | - |
| 1777945801 | 15.56° C | 27% | 1016.9 hPa | 0 mm | 0 m/s | - | - |
| 1777945202 | 15° C | 31% | 1016.9 hPa | 0 mm | 0 m/s | - | - |
| 1777944602 | 14.44° C | 29% | 1017.1 hPa | 0 mm | 0 m/s | - | - |
| 1777944000 | 14.44° C | 27% | 1017.2 hPa | 0 mm | 0 m/s | - | - |
| 1777943400 | 14.44° C | 33% | 1017.2 hPa | 0 mm | 0 m/s | - | - |
| 1777942800 | 14.44° C | 34% | 1017.2 hPa | 0 mm | 0 m/s | - | - |
| 1777942200 | 13.89° C | 33% | 1017.3 hPa | 0 mm | 0 m/s | - | - |
| 1777941601 | 13.33° C | 34% | 1017.3 hPa | 0 mm | 0 m/s | - | - |
| 1777941000 | 12.78° C | 37% | 1017.2 hPa | 0 mm | 0 m/s | - | - |
| 1777940401 | 12.22° C | 37% | 1017.3 hPa | 0 mm | 0 m/s | - | - |
| 1777939801 | 11.67° C | 41% | 1017.3 hPa | 0 mm | 0 m/s | - | - |
| 1777939200 | 11.67° C | 40% | 1017.1 hPa | 0 mm | 0 m/s | - | - |
| 1777938600 | 11.11° C | 43% | 1017.1 hPa | 0 mm | 0 m/s | - | - |
| 1777938000 | 10.56° C | 43% | 1017.1 hPa | 0 mm | 0 m/s | - | - |
| 1777937400 | 10° C | 45% | 1017.1 hPa | 0 mm | 0 m/s | - | - |
| 1777936801 | 10° C | 46% | 1017 hPa | 0 mm | 0 m/s | - | - |
| 1777936200 | 9.44° C | 45% | 1017 hPa | 0 mm | 0 m/s | - | - |
| 1777935601 | 8.89° C | 42% | 1017 hPa | 0 mm | 0 m/s | - | - |
| 1777935001 | 8.33° C | 58% | 1016.8 hPa | 0 mm | 0 m/s | - | - |
| 1777934401 | 7.22° C | 67% | 1016.8 hPa | 0 mm | 0 m/s | - | - |
| 1777933800 | 6.67° C | 71% | 1016.7 hPa | 0 mm | 0 m/s | - | - |
* Rain latest hour (hover to see other rain measurements)
** Current wind speed in m/s (hover to see current wind gust speed)